createdAt,value
2024-05-09T15:01:50.384Z,5.00
2024-05-09T15:03:23.106Z,6.00
2024-05-09T15:04:55.598Z,6.80
2024-05-09T15:06:28.068Z,5.60
2024-05-09T15:08:00.418Z,6.00
2024-05-09T15:09:35.942Z,7.00
2024-05-09T15:11:08.464Z,5.00
2024-05-09T15:12:40.911Z,5.40
2024-05-09T15:14:16.202Z,6.00
2024-05-09T15:15:48.763Z,4.00
2024-05-09T15:17:21.341Z,6.00
2024-05-09T15:18:53.855Z,5.40
2024-05-09T15:20:33.215Z,7.60
2024-05-09T15:22:11.897Z,5.80
2024-05-09T15:23:44.165Z,4.80
2024-05-09T15:25:16.564Z,7.60
2024-05-09T15:26:48.966Z,8.80
2024-05-09T15:28:21.550Z,13.00
2024-05-09T15:29:53.964Z,15.60
2024-05-09T15:31:26.379Z,22.00
2024-05-09T15:32:58.856Z,22.60
2024-05-09T15:34:31.432Z,27.00
2024-05-09T15:36:03.945Z,29.00
2024-05-09T15:37:37.020Z,32.00
2024-05-09T15:39:09.422Z,33.60
2024-05-09T15:40:41.928Z,36.00
2024-05-09T15:42:14.387Z,38.20
2024-05-09T15:43:46.941Z,40.50
2024-05-09T15:45:19.220Z,44.50
2024-05-09T15:46:52.316Z,47.25
2024-05-09T15:48:24.940Z,44.00
2024-05-09T15:49:57.289Z,46.75
2024-05-09T15:51:29.670Z,51.25
2024-05-09T15:53:02.046Z,56.50
2024-05-09T15:54:34.363Z,61.25
2024-05-09T15:56:07.061Z,58.50
2024-05-09T15:57:39.303Z,56.25
2024-05-09T15:59:11.701Z,64.25
2024-05-09T16:00:45.618Z,66.00
2024-05-09T16:02:19.761Z,69.25
2024-05-09T16:03:52.418Z,68.75
2024-05-09T16:05:25.029Z,70.20
2024-05-09T16:06:57.463Z,131.50
2024-05-09T16:08:29.746Z,136.67
2024-05-09T16:10:02.160Z,135.00
2024-05-09T16:11:35.059Z,116.00
2024-05-09T16:13:07.426Z,95.25
2024-05-09T16:14:39.843Z,86.50
2024-05-09T16:16:12.146Z,82.75
2024-05-09T16:17:44.647Z,85.75
2024-05-09T16:19:16.967Z,83.75
2024-05-09T16:20:50.276Z,87.25
2024-05-09T16:22:22.993Z,87.25
2024-05-09T16:23:55.619Z,93.75
2024-05-09T16:25:27.921Z,94.00
2024-05-09T16:27:01.078Z,99.75
2024-05-09T16:28:33.664Z,89.25
2024-05-09T16:30:09.519Z,96.00
2024-05-09T16:31:47.187Z,93.25
2024-05-09T16:33:24.089Z,98.25
2024-05-09T16:34:56.603Z,98.25
2024-05-09T16:36:29.322Z,96.50
2024-05-09T16:38:04.515Z,89.00
2024-05-09T16:39:37.069Z,101.50
2024-05-09T16:41:09.887Z,90.00
2024-05-09T16:42:42.340Z,101.00
2024-05-09T16:44:14.644Z,102.75
2024-05-09T16:45:46.974Z,95.00
2024-05-09T16:47:19.298Z,94.75
2024-05-09T16:48:51.833Z,91.50
2024-05-09T16:50:29.448Z,96.25
2024-05-09T16:52:05.840Z,96.50
2024-05-09T16:53:39.226Z,96.50
2024-05-09T16:55:11.863Z,98.25
2024-05-09T16:56:44.140Z,93.75
2024-05-09T16:58:16.693Z,94.50
2024-05-09T16:59:49.436Z,90.50
2024-05-09T17:01:21.984Z,85.25
2024-05-09T17:02:57.462Z,89.50
2024-05-09T17:04:30.092Z,92.50
2024-05-09T17:06:05.938Z,95.25
2024-05-09T17:07:38.446Z,89.00
2024-05-09T17:09:12.069Z,92.00
2024-05-09T17:10:51.195Z,90.75
2024-05-09T17:12:25.679Z,94.50
2024-05-09T17:13:58.172Z,92.00
2024-05-09T17:15:30.651Z,91.75
2024-05-09T17:17:03.030Z,96.00
2024-05-09T17:18:35.385Z,81.50
2024-05-09T17:20:18.728Z,81.50
2024-05-09T17:21:58.354Z,82.75
2024-05-09T17:23:34.324Z,82.25
2024-05-09T17:25:07.420Z,81.25
2024-05-09T17:26:39.805Z,74.75
2024-05-09T17:28:12.542Z,77.40
2024-05-09T17:29:45.047Z,76.40
2024-05-09T17:31:17.552Z,76.40
2024-05-09T17:32:50.607Z,67.60
2024-05-09T17:34:23.464Z,77.00
2024-05-09T17:35:55.982Z,75.00
2024-05-09T17:37:28.350Z,77.40
2024-05-09T17:39:00.621Z,72.60
2024-05-09T17:40:36.070Z,69.20
2024-05-09T17:42:10.117Z,76.60
2024-05-09T17:43:42.601Z,61.50
2024-05-09T17:45:15.503Z,56.50
2024-05-09T17:46:48.497Z,59.75
2024-05-09T17:48:20.935Z,59.50
2024-05-09T17:49:53.573Z,69.00
2024-05-09T17:51:25.979Z,61.75
2024-05-09T17:52:58.422Z,56.25
2024-05-09T17:54:30.885Z,71.00
2024-05-09T17:56:03.346Z,67.75
2024-05-09T17:57:35.628Z,75.80
2024-05-09T17:59:10.770Z,73.40
2024-05-09T18:00:43.963Z,64.00
2024-05-09T18:02:16.697Z,73.00
2024-05-09T18:03:50.365Z,69.50
2024-05-09T18:05:23.216Z,64.00
2024-05-09T18:06:55.672Z,64.20
2024-05-09T18:08:28.007Z,67.50
2024-05-09T18:10:00.326Z,69.20
2024-05-09T18:11:32.974Z,59.25
2024-05-09T18:13:06.214Z,63.00
2024-05-09T18:14:38.978Z,65.00
2024-05-09T18:16:11.373Z,69.40
2024-05-09T18:17:44.115Z,74.00
2024-05-09T18:19:16.636Z,60.50
2024-05-09T18:20:49.225Z,76.00
2024-05-09T18:22:23.596Z,65.00
2024-05-09T18:23:58.119Z,65.00
2024-05-09T18:25:31.863Z,60.25
2024-05-09T18:27:04.342Z,72.80
2024-05-09T18:28:36.681Z,63.75
2024-05-09T18:30:23.793Z,68.25
2024-05-09T18:32:00.538Z,63.75
2024-05-09T18:33:33.201Z,65.50
2024-05-09T18:35:06.044Z,65.50
2024-05-09T18:36:41.339Z,64.50
2024-05-09T18:38:13.638Z,61.50
2024-05-09T18:39:46.058Z,66.00
2024-05-09T18:41:20.708Z,69.25
2024-05-09T18:42:55.172Z,54.75
2024-05-09T18:44:27.782Z,68.50
2024-05-09T18:46:00.173Z,74.80
2024-05-09T18:47:32.667Z,65.00
2024-05-09T18:49:05.363Z,67.00
2024-05-09T18:50:40.223Z,69.50
2024-05-09T18:52:13.823Z,74.80
2024-05-09T18:53:46.588Z,74.00
2024-05-09T18:55:19.083Z,66.75
2024-05-09T18:56:51.403Z,70.20
2024-05-09T18:58:23.941Z,74.60
2024-05-09T18:59:56.521Z,71.80
2024-05-09T19:01:29.081Z,69.40
2024-05-09T19:03:01.864Z,61.50
2024-05-09T19:04:34.576Z,63.50
2024-05-09T19:06:07.490Z,63.50
2024-05-09T19:07:39.856Z,74.60
2024-05-09T19:09:12.187Z,79.20
2024-05-09T19:11:04.996Z,79.40
2024-05-09T19:12:37.522Z,69.60
2024-05-09T19:14:10.266Z,65.75
2024-05-09T19:15:43.562Z,42.75
2024-05-09T19:17:16.715Z,40.25
2024-05-09T19:18:51.714Z,40.25
2024-05-09T19:20:28.718Z,40.25
2024-05-09T19:22:08.868Z,43.75
2024-05-09T19:23:47.103Z,35.25
2024-05-09T19:25:24.226Z,42.75
2024-05-09T19:26:57.355Z,47.00
2024-05-09T19:28:29.803Z,48.00
2024-05-09T19:30:03.142Z,47.00
2024-05-09T19:31:36.500Z,49.25
2024-05-09T19:33:10.328Z,43.00
2024-05-09T19:34:43.607Z,54.00
2024-05-09T19:36:16.039Z,54.25
2024-05-09T19:37:51.632Z,56.25
2024-05-09T19:39:24.256Z,59.25
2024-05-09T19:40:56.659Z,71.20
2024-05-09T19:42:30.235Z,62.00
2024-05-09T19:44:02.853Z,68.50
2024-05-09T19:45:36.256Z,60.50
2024-05-09T19:47:08.975Z,55.00
2024-05-09T19:48:41.591Z,63.25
2024-05-09T19:50:19.722Z,70.60
2024-05-09T19:51:58.932Z,68.75
2024-05-09T19:53:31.398Z,64.25
2024-05-09T19:55:03.906Z,68.25
2024-05-09T19:56:36.207Z,68.25
2024-05-09T19:58:09.664Z,66.50
2024-05-09T19:59:44.148Z,65.00
2024-05-09T20:01:17.952Z,63.25
2024-05-09T20:02:50.740Z,67.40
2024-05-09T20:04:23.621Z,75.00
2024-05-09T20:05:56.090Z,64.80
2024-05-09T20:07:28.515Z,80.60
2024-05-09T20:09:00.936Z,67.60
2024-05-09T20:10:35.505Z,74.20
2024-05-09T20:12:09.730Z,74.00
2024-05-09T20:13:42.065Z,79.60
2024-05-09T20:15:14.547Z,74.40
2024-05-09T20:16:46.924Z,85.00
2024-05-09T20:18:19.256Z,79.20
2024-05-09T20:19:51.967Z,76.50
2024-05-09T20:21:24.972Z,79.50
2024-05-09T20:22:57.436Z,81.75
2024-05-09T20:24:29.812Z,76.00
2024-05-09T20:26:02.375Z,86.75
2024-05-09T20:27:34.810Z,87.50
2024-05-09T20:29:07.232Z,80.50
2024-05-09T20:30:39.999Z,87.00
2024-05-09T20:32:12.467Z,88.50
2024-05-09T20:33:44.946Z,88.00
2024-05-09T20:35:17.550Z,85.25
2024-05-09T20:36:49.918Z,83.50
2024-05-09T20:38:22.456Z,89.00
2024-05-09T20:39:55.014Z,94.25
2024-05-09T20:41:28.040Z,91.50
2024-05-09T20:43:00.484Z,102.00
2024-05-09T20:44:33.006Z,90.75
2024-05-09T20:46:05.912Z,90.75
2024-05-09T20:47:38.988Z,88.50
2024-05-09T20:49:12.069Z,96.00
2024-05-09T20:50:44.733Z,88.50
2024-05-09T20:52:17.623Z,94.25
2024-05-09T20:53:50.131Z,98.75
2024-05-09T20:55:22.609Z,96.00
2024-05-09T20:56:55.112Z,93.50
2024-05-09T20:58:28.145Z,96.50
2024-05-09T21:00:00.796Z,106.50
2024-05-09T21:01:33.065Z,101.00
2024-05-09T21:03:06.811Z,105.25
2024-05-09T21:04:40.078Z,96.00
2024-05-09T21:06:12.542Z,98.75
2024-05-09T21:07:44.931Z,103.75
2024-05-09T21:09:17.409Z,95.75
2024-05-09T21:10:49.855Z,92.25
2024-05-09T21:12:22.408Z,102.00
2024-05-09T21:13:54.765Z,99.00
2024-05-09T21:15:27.070Z,98.50
2024-05-09T21:16:59.616Z,97.25
2024-05-09T21:18:32.597Z,105.00
2024-05-09T21:20:11.397Z,102.50
2024-05-09T21:21:46.912Z,105.50
2024-05-09T21:23:19.191Z,132.75
2024-05-09T21:24:51.532Z,97.50
2024-05-09T21:26:25.168Z,95.25
2024-05-09T21:27:58.038Z,95.25
2024-05-09T21:29:30.567Z,86.75
2024-05-09T21:31:03.082Z,93.75
2024-05-09T21:32:35.424Z,83.25
2024-05-09T21:34:07.863Z,85.75
2024-05-09T21:35:41.256Z,90.00
2024-05-09T21:37:13.864Z,82.25
2024-05-09T21:38:46.472Z,91.50
2024-05-09T21:40:27.204Z,79.50
2024-05-09T21:42:06.342Z,87.00
2024-05-09T21:43:39.040Z,75.00
2024-05-09T21:45:11.365Z,83.50
2024-05-09T21:46:44.613Z,78.00
2024-05-09T21:48:17.058Z,80.75
2024-05-09T21:49:49.654Z,84.50
2024-05-09T21:51:22.070Z,76.40
2024-05-09T21:52:54.550Z,77.50
2024-05-09T21:54:27.113Z,74.20
2024-05-09T21:55:59.465Z,76.80
2024-05-09T21:57:31.861Z,71.00
2024-05-09T21:59:04.509Z,72.80
2024-05-09T22:00:39.421Z,71.20
2024-05-09T22:02:12.764Z,73.60
2024-05-09T22:03:45.444Z,63.80
2024-05-09T22:05:18.128Z,72.00
2024-05-09T22:06:50.560Z,67.60
2024-05-09T22:08:23.051Z,72.20
2024-05-09T22:09:55.430Z,64.50
2024-05-09T22:11:27.895Z,70.00
2024-05-09T22:13:00.319Z,59.25
2024-05-09T22:14:33.195Z,61.75
2024-05-09T22:16:06.022Z,55.75
2024-05-09T22:17:41.312Z,61.00
2024-05-09T22:19:13.691Z,57.25
2024-05-09T22:20:46.883Z,59.25
2024-05-09T22:22:20.690Z,55.75
2024-05-09T22:23:53.236Z,54.00
2024-05-09T22:25:28.041Z,51.25
2024-05-09T22:27:02.029Z,50.25
2024-05-09T22:28:34.287Z,49.00
2024-05-09T22:30:11.641Z,45.75
2024-05-09T22:31:46.917Z,50.25
2024-05-09T22:33:19.724Z,44.75
2024-05-09T22:34:52.053Z,46.75
